createdAt,value
2018-08-24T13:19:01.926Z,16.53
2018-08-24T13:21:30.453Z,18.33
2018-08-24T13:23:58.903Z,18.00
2018-08-24T13:26:27.367Z,18.67
2018-08-24T13:28:55.839Z,17.13
2018-08-24T13:31:24.358Z,18.50
2018-08-24T13:33:52.828Z,20.13
2018-08-24T13:36:21.290Z,19.83
2018-08-24T13:38:49.820Z,17.87
2018-08-24T13:41:18.400Z,19.07
2018-08-24T13:43:46.886Z,17.80
2018-08-24T13:46:19.863Z,18.97
2018-08-24T13:48:49.262Z,17.63
2018-08-24T13:51:17.777Z,18.17
2018-08-24T13:53:46.568Z,18.80
2018-08-24T13:56:15.382Z,18.77
2018-08-24T13:58:43.855Z,19.63
2018-08-24T14:01:13.638Z,19.87
2018-08-24T14:03:42.171Z,17.80
2018-08-24T14:06:10.646Z,18.10
2018-08-24T14:08:39.127Z,18.07
2018-08-24T14:11:07.764Z,20.57
2018-08-24T14:13:36.283Z,18.60
2018-08-24T14:16:04.738Z,20.70
2018-08-24T14:18:33.235Z,25.13
2018-08-24T14:21:01.779Z,20.00
2018-08-24T14:23:30.259Z,19.13
2018-08-24T14:25:58.922Z,20.57
2018-08-24T14:28:27.404Z,20.40
2018-08-24T14:30:55.886Z,21.30
2018-08-24T14:33:24.354Z,23.37
2018-08-24T14:35:52.930Z,22.20
2018-08-24T14:38:21.594Z,24.30
2018-08-24T14:40:50.043Z,23.83
2018-08-24T14:43:18.582Z,25.13
2018-08-24T14:45:47.055Z,23.17
2018-08-24T14:48:15.564Z,17.30
2018-08-24T14:50:44.031Z,18.80
2018-08-24T14:53:12.506Z,18.43
2018-08-24T14:55:40.974Z,16.60
2018-08-24T14:58:09.484Z,15.07
2018-08-24T15:00:37.947Z,14.87
2018-08-24T15:03:06.535Z,13.53
2018-08-24T15:05:35.007Z,19.03
2018-08-24T15:08:03.478Z,17.23
2018-08-24T15:10:32.072Z,13.60
2018-08-24T15:13:00.558Z,12.90
2018-08-24T15:15:29.134Z,14.20
2018-08-24T15:17:57.587Z,15.07
2018-08-24T15:20:26.051Z,16.33
2018-08-24T15:22:54.513Z,14.23
2018-08-24T15:25:23.026Z,18.67
2018-08-24T15:27:51.488Z,13.23
2018-08-24T15:30:19.992Z,14.03
2018-08-24T15:32:49.044Z,12.63
2018-08-24T15:35:17.584Z,13.17
2018-08-24T15:37:46.064Z,14.50
2018-08-24T15:40:14.555Z,14.73
2018-08-24T15:42:43.178Z,13.50
2018-08-24T15:45:11.810Z,15.83
2018-08-24T15:47:40.954Z,13.63
2018-08-24T15:50:09.587Z,10.73
2018-08-24T15:52:38.043Z,10.47
2018-08-24T15:55:06.612Z,13.23
2018-08-24T15:57:35.101Z,12.83
2018-08-24T16:00:04.272Z,14.43
2018-08-24T16:02:32.735Z,14.37
2018-08-24T16:05:01.193Z,16.00
2018-08-24T16:07:29.698Z,18.13
2018-08-24T16:09:58.170Z,17.47
2018-08-24T16:12:26.634Z,16.67
2018-08-24T16:14:55.094Z,17.23
2018-08-24T16:17:23.555Z,13.50
2018-08-24T16:19:52.023Z,14.40
2018-08-24T16:22:20.487Z,14.37
2018-08-24T16:24:48.944Z,13.80
2018-08-24T16:27:18.743Z,14.40
2018-08-24T16:29:47.198Z,18.77
2018-08-24T16:32:15.683Z,17.23
2018-08-24T16:34:44.152Z,15.57
2018-08-24T16:37:12.638Z,16.37
2018-08-24T16:39:41.110Z,16.93
2018-08-24T16:42:09.584Z,14.90
2018-08-24T16:44:38.035Z,19.83
2018-08-24T16:47:06.498Z,17.60
2018-08-24T16:49:35.063Z,19.43
2018-08-24T16:52:03.569Z,19.47
2018-08-24T16:54:32.091Z,17.60
2018-08-24T16:57:00.606Z,19.10
2018-08-24T16:59:29.062Z,21.20
2018-08-24T17:01:57.523Z,16.13
2018-08-24T17:04:25.991Z,15.60
2018-08-24T17:06:54.451Z,13.83
2018-08-24T17:09:22.911Z,18.00
2018-08-24T17:11:51.402Z,16.20
2018-08-24T17:14:19.866Z,15.40
2018-08-24T17:16:48.329Z,15.27
2018-08-24T17:19:16.798Z,16.87
2018-08-24T17:21:45.263Z,16.70
2018-08-24T17:24:13.727Z,16.70
2018-08-24T17:26:42.187Z,15.00
2018-08-24T17:29:10.771Z,13.40
2018-08-24T17:31:39.259Z,16.87
2018-08-24T17:34:07.723Z,15.37
2018-08-24T17:36:36.199Z,15.37
2018-08-24T17:39:08.174Z,14.63
2018-08-24T17:41:36.693Z,14.77
2018-08-24T17:44:05.259Z,13.47
2018-08-24T17:46:33.797Z,14.23
2018-08-24T17:49:02.329Z,17.33
2018-08-24T17:51:30.863Z,14.77
2018-08-24T17:53:59.327Z,15.13
2018-08-24T17:56:27.797Z,29.47
2018-08-24T17:58:56.359Z,15.20
2018-08-24T18:01:24.854Z,15.83
2018-08-24T18:03:53.323Z,16.53
2018-08-24T18:06:21.782Z,15.00
2018-08-24T18:08:50.415Z,15.30
2018-08-24T18:11:18.895Z,18.87
2018-08-24T18:13:47.490Z,21.17
2018-08-24T18:16:15.974Z,15.40
2018-08-24T18:18:44.444Z,17.43
2018-08-24T18:21:12.923Z,15.60
2018-08-24T18:23:41.379Z,16.57
2018-08-24T18:26:10.571Z,17.20
2018-08-24T18:28:39.059Z,18.83
2018-08-24T18:31:08.255Z,16.97
2018-08-24T18:33:36.732Z,15.80
2018-08-24T18:36:05.451Z,15.40
2018-08-24T18:38:34.090Z,16.80
2018-08-24T18:41:02.606Z,14.33
2018-08-24T18:43:31.286Z,14.37
2018-08-24T18:45:59.820Z,15.67
2018-08-24T18:48:28.328Z,15.17
2018-08-24T18:50:56.875Z,14.97
2018-08-24T18:53:25.481Z,17.33
2018-08-24T18:55:54.011Z,17.20
2018-08-24T18:58:22.897Z,15.50
2018-08-24T19:00:51.542Z,14.60
2018-08-24T19:03:20.031Z,15.53
2018-08-24T19:05:48.494Z,16.20
2018-08-24T19:08:17.022Z,15.40
2018-08-24T19:10:50.760Z,14.80
2018-08-24T19:13:19.267Z,16.43
2018-08-24T19:15:48.476Z,15.43
2018-08-24T19:18:22.204Z,18.20
2018-08-24T19:20:55.878Z,14.83
2018-08-24T19:23:26.287Z,15.00
2018-08-24T19:25:55.116Z,16.30
2018-08-24T19:28:29.399Z,16.07
2018-08-24T19:30:57.891Z,16.80
2018-08-24T19:33:26.673Z,16.20
2018-08-24T19:35:55.146Z,18.27
2018-08-24T19:38:23.619Z,15.80
2018-08-24T19:40:58.754Z,16.07
2018-08-24T19:43:27.595Z,14.23
2018-08-24T19:45:56.058Z,24.37
2018-08-24T19:48:29.879Z,18.43
2018-08-24T19:50:58.355Z,20.13
2018-08-24T19:53:27.088Z,13.80
2018-08-24T19:55:55.647Z,11.93
2018-08-24T19:58:30.407Z,14.53
2018-08-24T20:00:59.395Z,13.67
2018-08-24T20:03:29.162Z,14.23
2018-08-24T20:06:03.727Z,14.67
2018-08-24T20:08:37.948Z,12.57
2018-08-24T20:11:06.626Z,14.87
2018-08-24T20:13:35.423Z,16.50
2018-08-24T20:16:10.024Z,14.60
2018-08-24T20:18:38.873Z,14.83
2018-08-24T20:21:09.583Z,14.40
2018-08-24T20:23:38.307Z,13.93
2018-08-24T20:26:07.287Z,14.60
2018-08-24T20:28:35.963Z,16.30
2018-08-24T20:31:04.491Z,14.37
2018-08-24T20:33:33.036Z,16.00
2018-08-24T20:36:01.506Z,15.80
2018-08-24T20:38:29.987Z,15.40
2018-08-24T20:40:58.491Z,18.80
2018-08-24T20:43:26.959Z,14.83
2018-08-24T20:45:55.446Z,16.07
2018-08-24T20:48:23.915Z,14.20
2018-08-24T20:50:52.378Z,15.30
2018-08-24T20:53:20.840Z,14.90
2018-08-24T20:55:49.307Z,15.27
2018-08-24T20:58:17.767Z,16.20
2018-08-24T21:00:46.231Z,14.67
2018-08-24T21:03:14.703Z,14.40
2018-08-24T21:05:43.208Z,19.20
2018-08-24T21:08:11.654Z,14.43
2018-08-24T21:10:40.123Z,14.10
2018-08-24T21:13:08.588Z,20.57
2018-08-24T21:15:37.047Z,20.37
2018-08-24T21:18:05.608Z,15.70
2018-08-24T21:20:34.146Z,16.50
2018-08-24T21:23:02.607Z,16.67
2018-08-24T21:25:31.108Z,14.30
2018-08-24T21:27:59.579Z,15.63
2018-08-24T21:30:28.061Z,15.83
2018-08-24T21:32:56.554Z,22.20
2018-08-24T21:35:25.010Z,15.33
2018-08-24T21:37:53.483Z,16.10
2018-08-24T21:40:21.961Z,15.30
2018-08-24T21:42:50.436Z,16.27
2018-08-24T21:45:18.902Z,18.30
2018-08-24T21:47:47.368Z,21.57
2018-08-24T21:50:15.847Z,16.57
2018-08-24T21:52:44.330Z,15.53
2018-08-24T21:55:12.908Z,16.93
2018-08-24T21:57:41.358Z,14.83
2018-08-24T22:00:14.295Z,12.17
2018-08-24T22:02:43.075Z,10.30
2018-08-24T22:05:11.543Z,10.50
2018-08-24T22:07:40.008Z,14.83
2018-08-24T22:10:08.526Z,11.37
2018-08-24T22:12:37.299Z,14.07
2018-08-24T22:15:05.871Z,13.03
2018-08-24T22:17:34.332Z,14.40
2018-08-24T22:20:02.826Z,15.57
2018-08-24T22:22:31.335Z,15.53
2018-08-24T22:24:59.802Z,15.23
2018-08-24T22:27:28.262Z,15.90
2018-08-24T22:29:56.771Z,14.13
2018-08-24T22:32:25.211Z,16.33
2018-08-24T22:34:53.705Z,14.87
2018-08-24T22:37:22.171Z,14.23
2018-08-24T22:39:50.643Z,14.07
2018-08-24T22:42:19.102Z,13.37
2018-08-24T22:44:47.565Z,15.70
2018-08-24T22:47:16.018Z,15.00
2018-08-24T22:49:44.466Z,8.60
2018-08-24T22:52:12.911Z,10.77
2018-08-24T22:54:41.370Z,8.77
2018-08-24T22:57:09.871Z,8.93
2018-08-24T22:59:38.379Z,9.37
2018-08-24T23:02:06.898Z,7.10
2018-08-24T23:04:35.366Z,7.70
2018-08-24T23:07:03.863Z,8.27
2018-08-24T23:09:32.310Z,7.60
2018-08-24T23:12:00.767Z,5.67
2018-08-24T23:14:29.225Z,7.73
2018-08-24T23:16:57.674Z,6.40
2018-08-24T23:19:26.153Z,6.70
2018-08-24T23:21:54.607Z,5.60
2018-08-24T23:24:23.058Z,5.67
2018-08-24T23:26:51.525Z,7.43
2018-08-24T23:29:19.992Z,6.00
2018-08-24T23:31:48.470Z,5.43
2018-08-24T23:34:16.923Z,6.27
2018-08-24T23:36:45.403Z,5.33
2018-08-24T23:39:13.862Z,5.80
2018-08-24T23:41:42.354Z,7.73
2018-08-24T23:44:10.862Z,6.20
2018-08-24T23:46:39.314Z,8.53
2018-08-24T23:49:07.775Z,9.97
2018-08-24T23:51:36.235Z,10.13
2018-08-24T23:54:04.715Z,6.53
2018-08-24T23:56:33.181Z,15.13
2018-08-24T23:59:01.643Z,7.90
